Portada
METAR-TAF:

METAR-TAF

Aeropuertos :

Nadi, Fiyi

Aeropuerto Internacional de Nadi

latitud: 17-45S, longitud: 177-27E, altitud: 13 m

Observación

El informe se hizo hace 1 hora y 0 minutos, a las 05:00 UTC
Viento 12 kt del sureste, variando entre este-sureste y sur
Temperatura 25°C
Humedad 50%
Presión 1010 hPa
Visibilidad 10 km o más
Escasas nubes a una altura de 3000 ft

METAR: NFFN 170500Z 14012KT 120V180 9999 FEW030 25/14 Q1010 NOSIG

Hora: 18:00 (06:00 UTC)

Pronóstico

El informe se hizo hace 41 minutos, a las 05:19 UTC
Pronóstico válido del 17 a las 06 UTC al 18 a las 06 UTC
Viento 12 kt del este-sureste
Visibilidad 10 km o más
Escasas nubes a una altura de 3000 ft
Nubes dispersas a una altura de 10000 ft

TAF: NFFN 170519Z 1706/1806 11012KT 9999 FEW030 SCT100

Observaciones y pronósticos meteorológicos de más de 4000 aeropuertos (mensajes METAR y TAF).

Los puntos amarillos y rojos representan las estaciones disponibles.

Ponga el ratón en el punto deseado para ver el nombre de la estación.

Haga clic para ver las observaciones y los pronósticos meteorológicos.

Para cambiar el mapa : haga clic en los botones verdes con una cruz de color negro para hacer un zoom, en el botón verde con un guión para alejar o en las flechas verdes para mapas adyacentes.


METAR-TAF: